Time;durP1;ratioP1;P1;durP2;ratioP2;P2;SDS_P1;SDS_P2;PMS_P1;PMS_P2;Temp;Humidity;BMP_temperature;BMP_pressure;BME280_temperature;BME280_humidity;BME280_pressure;Samples;Min_cycle;Max_cycle;Signal;HPM_P1;HPM_P2
2021/05/26 00:00:26;;;;;;;13.00;11.60;;;;;;;12.08;69.20;99985.34;5080140;28;20518;-77
2021/05/26 00:02:52;;;;;;;13.70;12.30;;;;;;;12.16;68.78;99975.53;5080653;28;20459;-77
2021/05/26 00:05:18;;;;;;;18.40;16.33;;;;;;;11.92;69.79;99975.38;5080175;28;20448;-79
2021/05/26 00:07:45;;;;;;;18.20;16.30;;;;;;;11.96;69.89;99974.91;5081299;28;20456;-78
2021/05/26 00:10:12;;;;;;;19.27;17.27;;;;;;;11.66;70.58;99968.09;5079650;28;20513;-78
2021/05/26 00:12:38;;;;;;;20.83;18.73;;;;;;;12.20;69.04;99973.38;5081117;28;20443;-79
2021/05/26 00:15:07;;;;;;;22.50;20.10;;;;;;;11.97;69.46;99973.88;5080745;28;20492;-79
2021/05/26 00:17:33;;;;;;;22.00;19.80;;;;;;;12.26;69.09;99977.28;5081038;28;20459;-78
2021/05/26 00:20:00;;;;;;;22.70;20.43;;;;;;;12.34;69.12;99971.94;5080829;28;20827;-79
2021/05/26 00:22:26;;;;;;;26.77;22.33;;;;;;;11.99;69.57;99961.19;5080456;28;20484;-79
2021/05/26 00:24:53;;;;;;;31.30;24.50;;;;;;;12.24;69.28;99959.50;5080361;28;20462;-78
2021/05/26 00:27:19;;;;;;;31.80;25.27;;;;;;;11.85;70.04;99953.69;5079838;28;20491;-78
2021/05/26 00:29:46;;;;;;;27.30;24.40;;;;;;;12.45;68.34;99969.00;5080292;28;20456;-79
2021/05/26 00:32:14;;;;;;;31.53;26.63;;;;;;;12.24;69.57;99958.69;5080357;28;20475;-78
2021/05/26 00:34:40;;;;;;;30.53;26.20;;;;;;;11.99;69.74;99953.13;5081156;28;20487;-78
2021/05/26 00:37:06;;;;;;;35.20;28.03;;;;;;;12.34;69.18;99959.41;5084224;28;20467;-79
2021/05/26 00:39:32;;;;;;;33.00;27.90;;;;;;;12.43;68.73;99960.28;5083177;28;20459;-78
2021/05/26 00:41:59;;;;;;;37.90;29.37;;;;;;;12.15;68.72;99957.78;5083420;28;20484;-77
2021/05/26 00:44:25;;;;;;;34.43;29.10;;;;;;;12.48;68.74;99959.78;5083993;28;20459;-77
2021/05/26 00:46:51;;;;;;;32.03;27.30;;;;;;;12.43;68.53;99949.56;5083982;28;20476;-76
2021/05/26 00:49:18;;;;;;;34.97;30.17;;;;;;;12.38;68.60;99951.88;5083989;28;20953;-78
2021/05/26 00:51:45;;;;;;;33.00;27.77;;;;;;;12.41;68.63;99952.41;5083164;28;20472;-78
2021/05/26 00:54:12;;;;;;;33.53;27.30;;;;;;;12.67;67.88;99956.03;5083536;28;20496;-78
2021/05/26 00:56:38;;;;;;;38.33;30.57;;;;;;;12.93;67.22;99947.91;5083583;28;20487;-78
2021/05/26 00:59:06;;;;;;;34.60;28.80;;;;;;;12.32;68.27;99949.81;5084061;28;20490;-78
2021/05/26 01:01:32;;;;;;;40.90;28.33;;;;;;;12.46;68.10;99943.03;5083138;28;20574;-78
2021/05/26 01:03:59;;;;;;;33.13;26.50;;;;;;;11.88;70.13;99934.63;5083607;28;20443;-78
2021/05/26 01:06:26;;;;;;;32.40;25.87;;;;;;;12.68;68.00;99945.13;5083182;28;20502;-79
2021/05/26 01:08:52;;;;;;;30.93;25.90;;;;;;;12.38;68.41;99939.31;5082901;28;20480;-79
2021/05/26 01:11:19;;;;;;;31.83;26.87;;;;;;;12.15;69.01;99939.03;5083362;28;20870;-79
2021/05/26 01:13:45;;;;;;;29.67;24.23;;;;;;;12.37;68.59;99942.16;5084156;28;20444;-79
2021/05/26 01:16:12;;;;;;;32.20;23.93;;;;;;;12.24;69.21;99943.44;5082601;28;20495;-79
2021/05/26 01:18:38;;;;;;;30.33;23.77;;;;;;;12.20;68.88;99943.88;5083531;28;20448;-79
2021/05/26 01:21:07;;;;;;;27.30;22.97;;;;;;;12.08;69.51;99927.22;5082768;28;20521;-79
2021/05/26 01:23:34;;;;;;;27.50;22.87;;;;;;;12.13;69.47;99934.81;5083428;28;20436;-80
2021/05/26 01:26:04;;;;;;;29.53;23.37;;;;;;;12.29;68.51;99929.56;5083037;28;21107;-79
2021/05/26 01:28:31;;;;;;;27.37;21.20;;;;;;;12.01;69.61;99924.38;5083546;28;20451;-80
2021/05/26 01:30:58;;;;;;;26.37;22.70;;;;;;;12.15;69.25;99939.03;5082224;28;20498;-79
2021/05/26 01:33:25;;;;;;;25.80;20.87;;;;;;;11.66;71.03;99931.44;5083099;28;20444;-80
2021/05/26 01:35:51;;;;;;;26.60;21.03;;;;;;;12.10;69.20;99927.09;5081979;28;20835;-79
2021/05/26 01:38:19;;;;;;;25.03;20.63;;;;;;;12.08;68.74;99918.38;5082600;28;20984;-80
2021/05/26 01:40:47;;;;;;;21.17;18.90;;;;;;;11.65;70.17;99918.22;5082292;28;20494;-79
2021/05/26 01:43:14;;;;;;;24.27;19.50;;;;;;;11.90;69.72;99916.56;5083735;28;20448;-79
2021/05/26 01:45:40;;;;;;;24.83;19.40;;;;;;;12.27;68.34;99926.16;5081606;28;20467;-80
2021/05/26 01:48:07;;;;;;;22.80;19.93;;;;;;;11.91;68.59;99926.31;5082186;28;20475;-78
2021/05/26 01:50:34;;;;;;;22.87;18.77;;;;;;;11.92;68.87;99924.47;5082198;28;20472;-78
2021/05/26 01:53:03;;;;;;;24.57;18.07;;;;;;;11.90;68.86;99924.59;5083404;28;20914;-78
2021/05/26 01:55:29;;;;;;;23.07;16.07;;;;;;;11.89;69.24;99925.59;5081922;28;20475;-78
2021/05/26 01:57:56;;;;;;;26.13;18.47;;;;;;;12.08;68.04;99926.41;5082153;28;20472;-79
2021/05/26 02:00:23;;;;;;;24.60;17.80;;;;;;;12.10;67.99;99932.44;5082078;28;20440;-79
2021/05/26 02:02:49;;;;;;;29.03;19.40;;;;;;;11.65;69.53;99918.22;5083025;28;20437;-78
2021/05/26 02:05:17;;;;;;;28.43;19.10;;;;;;;11.75;69.24;99918.13;5082249;28;20447;-78
2021/05/26 02:07:44;;;;;;;19.20;13.70;;;;;;;11.67;69.12;99924.25;5082760;28;20454;-77
2021/05/26 02:10:11;;;;;;;18.23;11.70;;;;;;;11.78;68.54;99910.59;5080807;28;20462;-77
2021/05/26 02:12:37;;;;;;;9.53;8.10;;;;;;;11.54;67.26;99907.75;5083323;28;20483;-78
2021/05/26 02:15:07;;;;;;;8.93;7.67;;;;;;;11.64;67.25;99903.97;5082803;28;20525;-78
2021/05/26 02:17:34;;;;;;;9.93;8.80;;;;;;;11.69;67.04;99903.53;5082045;28;20507;-78
2021/05/26 02:20:00;;;;;;;17.80;13.10;;;;;;;11.44;68.29;99900.66;5082652;28;20451;-78
2021/05/26 02:22:27;;;;;;;15.50;13.90;;;;;;;12.16;66.67;99900.50;5082074;28;20472;-79
2021/05/26 02:24:53;;;;;;;17.83;15.13;;;;;;;11.23;70.23;99900.13;5081940;28;20459;-77
2021/05/26 02:27:19;;;;;;;18.07;15.43;;;;;;;11.39;70.06;99894.09;5081256;28;20555;-79
2021/05/26 02:29:45;;;;;;;18.87;15.67;;;;;;;11.84;68.79;99903.81;5082501;28;20452;-78
2021/05/26 02:32:12;;;;;;;19.67;15.70;;;;;;;11.90;68.34;99899.66;5082083;28;20504;-78
2021/05/26 02:34:39;;;;;;;22.47;15.47;;;;;;;11.37;69.75;99894.25;5081380;28;20487;-78
2021/05/26 02:37:06;;;;;;;20.30;14.47;;;;;;;11.45;69.19;99896.13;5080888;28;20480;-79
2021/05/26 02:39:32;;;;;;;26.80;14.60;;;;;;;12.09;67.91;99902.13;5080950;28;20473;-79
2021/05/26 02:41:58;;;;;;;19.93;13.97;;;;;;;11.72;68.71;99899.69;5082128;28;20479;-79
2021/05/26 02:44:25;;;;;;;21.53;15.53;;;;;;;11.60;69.71;99889.22;5081860;28;20444;-79
2021/05/26 02:46:51;;;;;;;19.07;14.03;;;;;;;11.63;68.70;99886.25;5081136;28;20506;-80
2021/05/26 02:49:18;;;;;;;14.67;11.57;;;;;;;11.29;69.48;99892.31;5081999;28;20452;-79
2021/05/26 02:51:44;;;;;;;17.60;13.10;;;;;;;11.62;68.91;99891.75;5081383;28;20470;-79
2021/05/26 02:54:11;;;;;;;14.77;12.90;;;;;;;11.29;69.32;99889.66;5081570;28;20456;-80
2021/05/26 02:56:37;;;;;;;16.13;13.23;;;;;;;11.11;70.17;99903.03;5080270;28;20472;-80
2021/05/26 02:59:06;;;;;;;15.37;13.03;;;;;;;11.07;69.63;99880.25;5081257;28;20502;-79
2021/05/26 03:01:32;;;;;;;14.50;11.90;;;;;;;11.69;68.43;99887.44;5081368;28;20984;-80
2021/05/26 03:03:58;;;;;;;13.00;10.57;;;;;;;11.57;68.67;99891.38;5081061;28;20467;-79
2021/05/26 03:06:25;;;;;;;17.13;10.10;;;;;;;11.52;68.75;99881.13;5081232;28;20506;-79
2021/05/26 03:08:52;;;;;;;15.10;10.10;;;;;;;11.63;67.40;99888.06;5080771;28;20476;-79
2021/05/26 03:11:18;;;;;;;13.53;9.53;;;;;;;11.66;67.68;99885.91;5081162;28;20503;-80
2021/05/26 03:13:44;;;;;;;12.37;8.57;;;;;;;11.46;68.48;99887.97;5081984;28;20507;-79
2021/05/26 03:16:11;;;;;;;12.37;8.83;;;;;;;11.48;68.03;99877.09;5080180;28;20472;-78
2021/05/26 03:18:37;;;;;;;11.00;8.30;;;;;;;11.98;66.65;99875.63;5081555;28;20475;-80
2021/05/26 03:21:04;;;;;;;14.10;8.83;;;;;;;11.66;67.33;99864.50;5080055;28;20710;-80
2021/05/26 03:23:31;;;;;;;13.30;8.77;;;;;;;11.58;68.73;99871.63;5081916;28;20474;-80
2021/05/26 03:25:57;;;;;;;14.90;8.70;;;;;;;11.69;67.80;99866.03;5080463;28;20472;-81
2021/05/26 03:28:24;;;;;;;11.07;7.53;;;;;;;11.90;66.78;99864.81;5081671;28;20467;-79
2021/05/26 03:30:50;;;;;;;11.97;7.67;;;;;;;12.24;66.10;99859.50;5080253;28;20479;-81
2021/05/26 03:33:17;;;;;;;12.43;8.20;;;;;;;11.94;66.24;99867.03;5081476;28;20853;-81
2021/05/26 03:35:44;;;;;;;9.40;7.93;;;;;;;11.68;67.38;99864.34;5080061;28;20512;-81
2021/05/26 03:38:11;;;;;;;13.03;7.80;;;;;;;11.62;67.25;99865.81;5079618;28;20953;-80
2021/05/26 03:40:38;;;;;;;13.80;7.80;;;;;;;11.42;68.10;99861.66;5079939;28;20472;-80
2021/05/26 03:43:05;;;;;;;11.20;7.97;;;;;;;11.94;66.41;99859.00;5080993;28;20452;-80
2021/05/26 03:45:31;;;;;;;11.93;7.80;;;;;;;11.40;68.13;99861.78;5080452;28;20868;-80
2021/05/26 03:47:58;;;;;;;14.67;8.53;;;;;;;11.53;68.25;99868.56;5081338;28;20467;-79
2021/05/26 03:50:25;;;;;;;11.87;8.13;;;;;;;11.46;67.91;99865.72;5080953;28;20483;-81
2021/05/26 03:52:51;;;;;;;9.67;8.63;;;;;;;11.76;67.13;99859.03;5074913;28;20448;-82
2021/05/26 03:55:19;;;;;;;11.63;8.83;;;;;;;11.39;67.64;99860.13;5072282;28;20480;-80
2021/05/26 03:57:47;;;;;;;9.07;7.67;;;;;;;10.96;69.04;99859.09;5081195;28;20985;-80
2021/05/26 04:00:15;;;;;;;10.97;8.20;;;;;;;11.97;66.61;99874.75;5080696;28;20456;-81
2021/05/26 04:02:41;;;;;;;16.83;9.60;;;;;;;11.34;68.58;99866.97;5064095;28;20432;-81
2021/05/26 04:05:08;;;;;;;15.90;9.07;;;;;;;11.84;66.99;99863.63;5079981;28;20685;-81
2021/05/26 04:07:34;;;;;;;11.97;8.80;;;;;;;12.08;66.19;99879.00;5081211;28;20452;-79
2021/05/26 04:10:01;;;;;;;16.53;10.83;;;;;;;11.69;66.49;99866.03;5075809;28;20473;-80
2021/05/26 04:12:28;;;;;;;22.13;12.60;;;;;;;11.31;68.04;99868.91;5084129;28;20479;-79
2021/05/26 04:14:55;;;;;;;14.73;10.50;;;;;;;11.93;66.74;99869.91;5084864;28;20491;-81
2021/05/26 04:17:21;;;;;;;16.13;12.00;;;;;;;11.49;67.96;99863.56;5083934;28;20472;-81
2021/05/26 04:19:48;;;;;;;17.33;11.47;;;;;;;11.52;67.50;99864.25;5082603;28;20475;-80
2021/05/26 04:22:14;;;;;;;16.70;12.50;;;;;;;11.97;66.35;99872.09;5084567;28;20479;-81
2021/05/26 04:24:40;;;;;;;13.13;10.57;;;;;;;11.61;67.20;99856.13;5084923;28;20490;-80
2021/05/26 04:27:06;;;;;;;17.90;11.73;;;;;;;11.46;68.05;99871.91;5084014;28;20857;-81
2021/05/26 04:29:33;;;;;;;19.47;11.83;;;;;;;11.52;67.96;99867.75;5084524;28;20640;-79
2021/05/26 04:32:00;;;;;;;17.50;11.73;;;;;;;11.53;68.13;99853.38;5085001;28;20467;-81
2021/05/26 04:34:26;;;;;;;19.40;11.23;;;;;;;12.38;65.60;99856.19;5080614;28;20488;-80
2021/05/26 04:36:53;;;;;;;21.20;12.40;;;;;;;12.07;66.45;99855.91;5086368;28;20467;-80
2021/05/26 04:39:19;;;;;;;18.33;11.70;;;;;;;11.80;67.41;99854.22;5084810;28;20459;-79
2021/05/26 04:41:45;;;;;;;16.60;11.83;;;;;;;11.33;68.49;99846.53;5085018;28;20547;-80
2021/05/26 04:44:11;;;;;;;15.17;10.40;;;;;;;11.45;68.13;99848.78;5086323;28;20466;-80
2021/05/26 04:46:37;;;;;;;16.27;11.70;;;;;;;12.09;66.58;99847.72;5084491;28;20513;-80
2021/05/26 04:49:05;;;;;;;16.43;11.53;;;;;;;11.44;68.39;99849.81;5084954;28;20444;-81
2021/05/26 04:51:31;;;;;;;18.17;11.50;;;;;;;11.91;67.03;99845.09;5083315;28;21011;-80
2021/05/26 04:53:57;;;;;;;15.07;10.67;;;;;;;11.49;67.86;99846.63;5084125;28;20440;-81
2021/05/26 04:56:23;;;;;;;18.30;11.37;;;;;;;11.74;67.55;99844.16;5083176;28;20518;-80
2021/05/26 04:58:49;;;;;;;23.73;12.03;;;;;;;11.77;66.94;99844.66;5083452;28;20451;-81
2021/05/26 05:01:16;;;;;;;23.73;11.73;;;;;;;11.97;66.66;99841.78;5083558;28;20475;-79
2021/05/26 05:03:43;;;;;;;21.00;11.97;;;;;;;12.11;66.77;99837.66;5081036;28;20523;-71
2021/05/26 05:06:10;;;;;;;20.83;12.57;;;;;;;12.00;66.81;99841.47;5077178;28;21395;-73
2021/05/26 05:08:38;;;;;;;17.13;11.30;;;;;;;12.05;66.41;99837.31;5080760;28;20483;-72
2021/05/26 05:11:04;;;;;;;20.20;12.80;;;;;;;12.10;66.56;99841.34;5077968;28;20506;-72
2021/05/26 05:13:30;;;;;;;16.43;11.23;;;;;;;11.89;66.69;99853.28;5082776;28;20452;-72
2021/05/26 05:15:57;;;;;;;16.50;11.30;;;;;;;11.59;67.99;99843.88;5080705;28;20494;-72
2021/05/26 05:18:23;;;;;;;17.27;12.50;;;;;;;11.63;67.92;99846.09;5076686;28;20467;-72
2021/05/26 05:20:49;;;;;;;20.30;12.67;;;;;;;11.86;67.41;99849.06;5082233;28;20525;-72
2021/05/26 05:23:16;;;;;;;19.33;11.70;;;;;;;12.40;65.70;99848.00;5082366;28;20484;-72
2021/05/26 05:25:42;;;;;;;23.63;12.33;;;;;;;12.21;66.42;99839.22;5081633;28;20472;-72
2021/05/26 05:28:08;;;;;;;18.53;12.20;;;;;;;12.12;66.86;99842.03;5066488;28;20490;-72
2021/05/26 05:30:34;;;;;;;17.70;12.90;;;;;;;11.92;67.16;99852.13;5082984;28;20880;-72
2021/05/26 05:33:01;;;;;;;17.67;12.73;;;;;;;12.04;67.22;99834.78;5083125;28;20471;-71
2021/05/26 05:35:28;;;;;;;18.63;12.63;;;;;;;11.82;67.82;99842.34;5082044;28;20511;-71
2021/05/26 05:37:54;;;;;;;23.20;13.67;;;;;;;11.78;68.09;99842.81;5082643;28;20440;-71
2021/05/26 05:40:21;;;;;;;25.07;14.87;;;;;;;11.85;67.38;99846.53;5080687;28;20507;-71
2021/05/26 05:42:47;;;;;;;19.10;14.00;;;;;;;12.04;67.38;99840.97;5080519;28;20482;-71
2021/05/26 05:45:14;;;;;;;26.37;13.97;;;;;;;12.44;65.82;99836.78;5081786;28;20479;-71
2021/05/26 05:47:40;;;;;;;23.20;14.23;;;;;;;12.18;65.94;99836.00;5082458;28;20440;-73
2021/05/26 05:50:14;;;;;;;23.53;13.93;;;;;;;12.42;65.81;99841.47;5082147;28;20478;-71
2021/05/26 05:52:41;;;;;;;23.40;15.03;;;;;;;12.16;66.45;99832.66;5080887;28;20459;-71
2021/05/26 05:55:08;;;;;;;22.47;14.10;;;;;;;12.18;67.04;99831.50;5080086;28;20547;-71
2021/05/26 05:57:36;;;;;;;23.90;15.73;;;;;;;12.03;67.79;99822.38;5075997;28;20440;-72
2021/05/26 06:00:04;;;;;;;19.10;14.57;;;;;;;12.51;67.05;99814.69;5082116;28;20459;-71
2021/05/26 06:02:30;;;;;;;22.90;15.53;;;;;;;11.96;68.30;99819.53;5081470;28;20487;-71
2021/05/26 06:04:56;;;;;;;20.63;16.17;;;;;;;12.24;67.86;99819.31;5081831;28;20866;-72
2021/05/26 06:07:23;;;;;;;24.40;15.77;;;;;;;12.19;67.83;99824.31;5081617;28;20471;-71
2021/05/26 06:09:51;;;;;;;23.43;17.67;;;;;;;12.14;68.08;99819.41;5078731;28;20440;-72
2021/05/26 06:12:17;;;;;;;30.43;16.73;;;;;;;12.26;67.71;99819.16;5081836;28;20526;-71
2021/05/26 06:14:45;;;;;;;22.40;15.77;;;;;;;12.26;67.52;99814.63;5081614;28;20530;-72
2021/05/26 06:17:11;;;;;;;26.60;15.90;;;;;;;12.51;67.67;99817.38;5081323;28;20479;-71
2021/05/26 06:19:37;;;;;;;21.40;14.40;;;;;;;12.39;67.14;99816.81;5081986;28;20452;-71
2021/05/26 06:22:04;;;;;;;29.20;16.33;;;;;;;12.46;66.04;99807.13;5074164;28;21304;-69
2021/05/26 06:24:30;;;;;;;27.60;17.17;;;;;;;12.51;66.24;99812.00;5078086;28;20463;-78
2021/05/26 06:26:56;;;;;;;24.13;16.77;;;;;;;12.54;66.47;99817.88;5080068;28;20475;-69
2021/05/26 06:29:22;;;;;;;23.83;15.30;;;;;;;12.95;64.84;99809.91;5080761;28;20566;-70
2021/05/26 06:31:49;;;;;;;19.43;14.83;;;;;;;12.71;65.07;99810.72;5073438;28;20480;-71
2021/05/26 06:34:16;;;;;;;27.57;15.20;;;;;;;12.45;65.79;99805.47;5080826;28;20451;-68
2021/05/26 06:36:42;;;;;;;22.17;14.97;;;;;;;12.65;65.81;99810.53;5079277;28;20468;-68
2021/05/26 06:39:09;;;;;;;21.03;14.00;;;;;;;12.60;65.85;99813.69;5095434;28;20451;-71
2021/05/26 06:41:35;;;;;;;22.10;15.07;;;;;;;12.44;65.91;99812.63;5086648;28;20591;-73
2021/05/26 06:44:01;;;;;;;20.43;14.60;;;;;;;13.20;64.20;99817.94;5079975;28;20436;-74
2021/05/26 06:46:28;;;;;;;19.20;13.77;;;;;;;13.17;63.95;99811.06;5079569;28;20510;-74
2021/05/26 06:48:55;;;;;;;20.27;14.10;;;;;;;13.62;63.11;99808.03;5079387;28;20452;-75
2021/05/26 06:51:21;;;;;;;18.77;13.70;;;;;;;13.22;64.11;99807.88;5095924;28;20478;-73
2021/05/26 06:53:47;;;;;;;19.80;14.70;;;;;;;13.43;63.37;99812.75;5095531;28;20843;-75
2021/05/26 06:56:14;;;;;;;23.27;13.93;;;;;;;13.75;61.58;99794.91;5078911;28;20476;-71
2021/05/26 06:58:40;;;;;;;17.43;13.17;;;;;;;14.12;60.56;99809.53;5080244;28;20452;-69
2021/05/26 07:01:06;;;;;;;19.20;12.30;;;;;;;14.17;60.09;99806.34;5079020;28;20482;-72
2021/05/26 07:03:33;;;;;;;20.07;12.17;;;;;;;14.21;61.12;99805.81;5079763;28;21069;-77
2021/05/26 07:06:00;;;;;;;17.00;11.67;;;;;;;14.80;58.03;99799.94;5079210;28;20498;-71
2021/05/26 07:08:26;;;;;;;18.03;11.03;;;;;;;16.49;53.33;99808.50;5079021;28;20459;-70
2021/05/26 07:10:52;;;;;;;13.90;10.27;;;;;;;16.05;54.29;99795.91;5079072;28;20475;-67
2021/05/26 07:13:18;;;;;;;12.53;9.23;;;;;;;15.48;54.18;99801.91;5071863;28;20460;-71
2021/05/26 07:15:45;;;;;;;13.73;9.30;;;;;;;17.15;50.57;99785.06;5059487;28;20487;-69
2021/05/26 07:18:11;;;;;;;10.30;8.97;;;;;;;18.02;48.47;99786.53;5073136;28;20502;-71
2021/05/26 07:20:40;;;;;;;11.57;10.47;;;;;;;18.30;47.05;99789.13;5079336;28;20463;-71
2021/05/26 07:23:07;;;;;;;10.30;8.57;;;;;;;18.83;45.80;99788.47;5079118;28;20451;-73
2021/05/26 07:25:33;;;;;;;13.23;8.10;;;;;;;18.49;46.77;99786.69;5078811;28;20988;-70
2021/05/26 07:28:00;;;;;;;9.80;8.70;;;;;;;18.73;44.16;99778.03;5080191;28;20450;-72
2021/05/26 07:30:26;;;;;;;10.73;7.83;;;;;;;17.85;47.12;99773.28;5080147;28;20519;-72
2021/05/26 07:32:52;;;;;;;11.23;8.63;;;;;;;17.42;48.26;99786.13;5090101;28;20452;-73
2021/05/26 07:35:19;;;;;;;8.80;7.50;;;;;;;15.98;51.31;99779.63;5078540;28;20492;-72
2021/05/26 07:37:45;;;;;;;9.10;7.67;;;;;;;17.50;48.50;99784.09;5079531;28;20443;-72
2021/05/26 07:40:13;;;;;;;11.00;7.60;;;;;;;20.46;42.22;99778.81;5078225;28;20499;-70
2021/05/26 07:42:40;;;;;;;12.00;6.60;;;;;;;22.65;37.91;99788.72;5078558;28;20443;-72
2021/05/26 07:45:07;;;;;;;9.47;5.50;;;;;;;20.25;40.67;99783.50;5078820;28;20443;-73
2021/05/26 07:47:34;;;;;;;12.00;6.10;;;;;;;19.44;43.41;99783.91;5079040;28;20444;-73
2021/05/26 07:50:00;;;;;;;6.50;5.70;;;;;;;17.24;47.96;99792.03;5079987;28;20455;-77
2021/05/26 07:52:28;;;;;;;8.40;6.23;;;;;;;16.64;50.05;99781.44;5078838;28;20503;-69
2021/05/26 07:54:54;;;;;;;10.67;5.90;;;;;;;17.07;48.18;99780.66;5078937;28;20988;-72
2021/05/26 07:57:21;;;;;;;6.97;5.50;;;;;;;16.20;50.87;99787.81;5079089;28;20960;-69
2021/05/26 07:59:48;;;;;;;8.03;6.20;;;;;;;16.43;49.25;99786.81;5078515;28;20452;-72
2021/05/26 08:02:15;;;;;;;9.40;7.20;;;;;;;16.00;51.23;99784.84;5070417;28;20475;-71
2021/05/26 08:04:41;;;;;;;7.57;5.23;;;;;;;14.56;55.22;99782.06;5071965;28;20519;-71
2021/05/26 08:07:09;;;;;;;9.83;5.60;;;;;;;15.24;54.04;99780.41;5078777;28;20486;-71
2021/05/26 08:09:35;;;;;;;7.30;6.57;;;;;;;15.65;52.06;99791.81;5077641;28;20843;-72
2021/05/26 08:12:01;;;;;;;10.63;6.80;;;;;;;16.22;50.29;99782.22;5076395;28;20468;-72
2021/05/26 08:14:30;;;;;;;10.00;7.43;;;;;;;15.66;51.45;99791.63;5075904;28;20432;-72
2021/05/26 08:16:58;;;;;;;6.47;5.77;;;;;;;15.90;52.22;99786.97;5080893;28;20481;-72
2021/05/26 08:19:24;;;;;;;9.67;6.40;;;;;;;15.91;51.06;99780.59;5081960;28;20471;-74
2021/05/26 08:21:50;;;;;;;7.57;5.53;;;;;;;15.50;51.95;99775.59;5077753;28;20479;-70
2021/05/26 08:24:16;;;;;;;6.17;5.57;;;;;;;15.49;51.59;99784.72;5077999;28;20523;-76
2021/05/26 08:26:43;;;;;;;6.27;5.67;;;;;;;14.87;53.33;99786.59;5078202;28;20486;-71
2021/05/26 08:29:09;;;;;;;7.37;5.20;;;;;;;14.85;53.92;99783.25;5079203;28;20455;-71
2021/05/26 08:31:36;;;;;;;7.97;5.10;;;;;;;15.38;52.49;99773.38;5078458;28;20568;-72
2021/05/26 08:34:03;;;;;;;5.17;4.70;;;;;;;17.53;46.61;99766.63;5072448;28;20461;-78
2021/05/26 08:36:29;;;;;;;5.13;4.47;;;;;;;18.00;44.13;99764.22;5077565;28;20483;-71
2021/05/26 08:38:55;;;;;;;9.17;5.87;;;;;;;19.79;40.93;99764.66;5079016;28;20960;-74
2021/05/26 08:41:23;;;;;;;6.23;4.33;;;;;;;19.40;42.00;99760.97;5079581;28;20491;-70
2021/05/26 08:43:49;;;;;;;6.80;4.30;;;;;;;19.09;41.41;99751.59;5079605;28;20979;-72
2021/05/26 08:46:16;;;;;;;7.53;5.40;;;;;;;18.70;43.69;99755.94;5078180;28;20601;-72
2021/05/26 08:48:43;;;;;;;4.03;3.60;;;;;;;18.09;43.96;99759.47;5078864;28;20463;-68
2021/05/26 08:51:11;;;;;;;6.37;4.80;;;;;;;18.09;42.84;99749.50;5079103;28;20935;-68
2021/05/26 08:53:37;;;;;;;5.80;4.23;;;;;;;17.98;42.86;99753.59;5079561;28;20451;-68
2021/05/26 08:56:05;;;;;;;6.20;5.60;;;;;;;19.02;41.32;99765.16;5078040;28;20475;-70
2021/05/26 08:58:37;;;;;;;5.57;3.77;;;;;;;18.91;41.20;99753.06;5083295;28;20505;-71
2021/05/26 09:01:03;;;;;;;4.13;3.57;;;;;;;17.88;42.69;99745.06;5082956;28;20479;-78
2021/05/26 09:03:30;;;;;;;5.53;3.27;;;;;;;16.46;46.66;99746.81;5083046;28;20463;-74
2021/05/26 09:05:57;;;;;;;5.30;4.13;;;;;;;16.37;46.57;99748.78;5082780;28;20471;-76
2021/05/26 09:08:25;;;;;;;7.10;4.47;;;;;;;16.39;47.20;99745.91;5082815;28;20462;-73
2021/05/26 09:10:54;;;;;;;5.73;4.03;;;;;;;18.19;43.05;99746.41;5082806;28;20468;-73
2021/05/26 09:13:33;;;;;;;8.97;4.27;;;;;;;18.53;42.40;99742.75;5083038;28;20956;-79
2021/05/26 09:16:00;;;;;;;4.20;3.20;;;;;;;16.81;45.56;99724.53;5082767;28;20512;-70
2021/05/26 09:18:26;;;;;;;3.57;2.87;;;;;;;16.48;45.71;99733.97;5083500;28;20463;-73
2021/05/26 09:20:53;;;;;;;10.30;3.43;;;;;;;18.80;42.30;99740.09;5082371;28;20472;-69
2021/05/26 09:23:27;;;;;;;4.87;3.20;;;;;;;19.15;41.19;99742.66;5083278;28;20443;-82
2021/05/26 09:25:55;;;;;;;3.00;2.70;;;;;;;16.74;44.67;99733.38;5081774;28;20885;-72
2021/05/26 09:28:27;;;;;;;4.67;2.83;;;;;;;16.87;45.75;99718.34;5082564;28;20455;-74
2021/05/26 09:30:56;;;;;;;3.07;2.73;;;;;;;16.74;47.14;99724.44;5082027;28;21027;-75
2021/05/26 09:33:28;;;;;;;4.30;2.70;;;;;;;16.36;47.49;99725.53;5082728;28;20435;-69
2021/05/26 09:36:11;;;;;;;4.60;2.77;;;;;;;17.69;44.03;99714.97;5081993;28;20487;-69
2021/05/26 09:38:39;;;;;;;3.60;2.80;;;;;;;18.65;41.14;99720.53;5081874;28;20477;-72
2021/05/26 09:41:13;;;;;;;2.50;2.30;;;;;;;17.85;43.19;99715.69;5081859;28;20475;-69
2021/05/26 09:43:44;;;;;;;2.70;2.50;;;;;;;19.78;39.19;99714.19;5082669;28;20456;-70
2021/05/26 09:46:20;;;;;;;3.77;2.23;;;;;;;19.73;38.65;99722.94;5080858;28;20655;-67
2021/05/26 09:49:08;;;;;;;3.37;2.23;;;;;;;20.23;38.27;99709.59;5080589;28;20470;-73
2021/05/26 09:51:35;;;;;;;5.60;2.30;;;;;;;19.45;39.29;99713.19;5074361;28;20506;-69
2021/05/26 09:54:24;;;;;;;2.90;2.00;;;;;;;20.28;38.01;99709.78;5081621;28;20483;-74
2021/05/26 09:56:52;;;;;;;4.07;2.30;;;;;;;19.34;38.64;99713.88;5076468;28;20515;-71
2021/05/26 09:59:18;;;;;;;3.47;1.90;;;;;;;19.16;38.67;99704.47;5080424;28;20459;-70
2021/05/26 10:01:44;;;;;;;3.23;1.87;;;;;;;20.59;36.58;99691.84;5080894;28;20854;-71
2021/05/26 10:04:10;;;;;;;3.27;2.00;;;;;;;20.25;36.83;99701.25;5081975;28;20522;-71
2021/05/26 10:06:41;;;;;;;2.80;2.13;;;;;;;21.51;34.45;99693.16;5080448;28;20471;-69
2021/05/26 10:09:11;;;;;;;2.77;1.93;;;;;;;22.74;32.27;99697.41;5081167;28;20440;-71
2021/05/26 10:11:38;;;;;;;3.20;2.07;;;;;;;21.93;33.91;99691.41;5080566;28;20921;-70
2021/05/26 10:14:07;;;;;;;2.73;1.80;;;;;;;21.32;34.90;99697.72;5081155;28;20440;-73
2021/05/26 10:16:37;;;;;;;5.30;2.00;;;;;;;20.99;35.88;99693.44;5081456;28;20490;-73
2021/05/26 10:19:04;;;;;;;2.80;1.70;;;;;;;19.61;38.09;99698.34;5081098;28;20447;-73
2021/05/26 10:21:31;;;;;;;3.87;2.47;;;;;;;17.98;40.89;99693.28;5079696;28;20495;-73
2021/05/26 10:23:59;;;;;;;3.63;2.27;;;;;;;17.94;39.88;99690.16;5079022;28;20518;-70
2021/05/26 10:27:07;;;;;;;4.73;2.53;;;;;;;19.31;38.99;99690.72;5079715;28;20476;-67
2021/05/26 10:29:42;;;;;;;3.37;1.73;;;;;;;18.61;39.88;99698.44;5079298;28;20444;-71
2021/05/26 10:32:24;;;;;;;2.40;1.90;;;;;;;18.59;40.73;99690.53;5080114;28;20514;-73
2021/05/26 10:35:07;;;;;;;4.50;2.17;;;;;;;18.44;40.96;99689.88;5081035;28;20467;-69
2021/05/26 10:37:37;;;;;;;4.40;2.20;;;;;;;18.34;41.36;99698.38;5078703;28;20501;-69
2021/05/26 10:40:37;;;;;;;3.00;2.00;;;;;;;19.25;40.52;99690.72;5075481;28;20471;-70
2021/05/26 10:43:28;;;;;;;3.83;2.47;;;;;;;18.92;40.38;99697.84;5077588;28;20766;-72
2021/05/26 10:45:57;;;;;;;3.63;2.23;;;;;;;18.74;40.77;99694.91;5078898;28;20471;-68
2021/05/26 10:48:56;;;;;;;2.50;2.30;;;;;;;18.87;39.48;99689.53;5075729;28;20436;-73
2021/05/26 10:52:08;;;;;;;2.20;1.97;;;;;;;19.27;38.30;99685.91;5067546;28;20471;-76
2021/05/26 10:54:59;;;;;;;1.77;1.23;;;;;;;18.60;39.61;99689.47;5079419;28;20971;-72
2021/05/26 10:57:26;;;;;;;4.57;1.97;;;;;;;18.42;40.04;99687.38;5078831;28;20498;-68
2021/05/26 11:00:27;;;;;;;4.00;1.77;;;;;;;18.90;40.14;99689.09;5080469;28;21148;-68
2021/05/26 11:03:40;;;;;;;2.43;1.50;;;;;;;18.90;39.58;99686.38;5079843;28;20468;-74
2021/05/26 11:06:39;;;;;;;2.07;1.57;;;;;;;18.83;39.75;99692.84;5079258;28;20500;-73
2021/05/26 11:09:08;;;;;;;3.20;2.00;;;;;;;18.54;40.78;99687.59;5074886;28;20444;-72
2021/05/26 11:11:55;;;;;;;4.23;1.70;;;;;;;17.63;41.84;99683.31;5079542;28;20545;-72
2021/05/26 11:14:35;;;;;;;4.03;2.00;;;;;;;16.48;44.56;99687.25;5080365;28;20554;-71
2021/05/26 11:17:21;;;;;;;3.00;1.87;;;;;;;16.89;43.56;99695.53;5074597;28;20479;-71
2021/05/26 11:19:48;;;;;;;4.23;1.80;;;;;;;17.06;43.28;99687.13;5077889;28;20486;-70
2021/05/26 11:22:16;;;;;;;2.00;1.80;;;;;;;17.03;43.18;99685.69;5078944;28;20498;-71
2021/05/26 11:24:45;;;;;;;3.73;1.70;;;;;;;17.67;42.23;99695.41;5079431;28;20478;-71
2021/05/26 11:27:15;;;;;;;3.83;1.90;;;;;;;17.33;42.70;99690.03;5087544;28;20475;-73
2021/05/26 11:29:42;;;;;;;3.87;2.27;;;;;;;17.53;45.43;99693.66;5081355;28;20459;-72